x

South Kodiak - 310nm Ssw Of Kodiak, Ak (46066) Wave Buoy

6:50am - Sun 24th Sep 2017 All times are UTC.

  • Sig Wave height 10.2ft
  • Swell Direction
  • Peak Period 8s
  • Average Period 7s
  • Wind
    22mph, 29mph gusts
  • Sea Temp 50°f
  • Air Temp 48°f
  • Sea Pressure 1005.5mb

More Historic Weather Station data

Upgrade to MSW Pro to gain access to the past 30 days of data for over 8000 Wavebouys and Weather Stations around the globe.

Join

Comparision Forecast

View Surf forecast
   
Sun 09/24 6:50am 10ft 8s 7s 22 29 mph 1005.5mb 50f 48f
5:50am 10ft 9s 7s 20 27 mph 1005.4mb 50f 49f
4:50am 10.5ft 8s 7s 20 25 mph 1004.9mb 50f 49f
3:50am 10ft 8s 7s 25 29 mph 1004.3mb 50f 49f
2:50am 10ft 9s 6s 20 27 mph 1003.8mb 51f 50f
1:50am 9.5ft 10s 6s 25 29 mph 1003.3mb 51f 50f
12:50am 9ft 8s 6s 27 34 mph 1003.1mb 51f 49f
Sat 09/23 11:50pm 10ft 8s 6s 25 31 mph 1002.7mb 51f 50f
10:50pm 9.5ft 10s 6s 22 27 mph 1002.2mb 50f 50f
9:50pm 8.5ft 10s 6s 22 29 mph 1001.9mb 50f 50f
8:50pm 9ft 7s 6s 25 29 mph 1001.4mb 50f 49f
7:50pm 8ft 7s 6s 25 29 mph 1001mb 50f 49f
6:50pm 7ft 10s 6s 27 29 mph 1000.6mb 50f 49f
5:50pm 7ft 10s 6s 25 31 mph 1000mb 50f 49f
4:50pm 7ft 10s 6s 22 27 mph 999.3mb 50f 50f
3:50pm 7ft 10s 6s 18 25 mph 998.8mb 50f 50f
2:50pm 7ft 10s 6s 18 22 mph 998.4mb 51f 50f
1:50pm 6.5ft 10s 6s 18 22 mph 997.8mb 51f 50f
12:50pm 7ft 10s 6s 20 22 mph 997.6mb 51f 51f
11:50am 7ft 10s 6s 20 25 mph 997.7mb 51f 51f
10:50am 7ft 10s 6s 20 25 mph 998mb 51f 51f
9:50am 6ft 7s 6s 20 27 mph 998.7mb 50f 51f
8:50am 7ft 10s 6s 20 22 mph 999.4mb 50f 51f
7:50am 6ft 10s 6s 20 25 mph 1000mb 50f 51f
6:50am 6ft 10s 6s 20 25 mph 1000.5mb 50f 52f
5:50am 6ft 10s 6s 18 22 mph 1001mb 50f 51f
4:50am 6.5ft 10s 6s 18 22 mph 1001.6mb 50f 51f
3:50am 6ft 10s 6s 20 22 mph 1001.9mb 50f 51f
2:50am 6.5ft 11s 6s 18 25 mph 1002.4mb 50f 51f
1:50am 7ft 10s 7s 16 20 mph 1002.9mb 50f 51f
12:50am 6.5ft 9s 6s 18 20 mph 1003.5mb 50f 52f
Fri 09/22 11:50pm 6.5ft 11s 7s 18 20 mph 1004.3mb 50f 52f
10:50pm 6.5ft 10s 7s 16 20 mph 1005mb 50f 51f
9:50pm 7ft 11s 7s 16 20 mph 1006.2mb 50f 51f
8:50pm 7ft 11s 7s 13 18 mph 1007.3mb 50f 51f
7:50pm 8ft 10s 7s 16 20 mph 1008mb 50f 50f
6:50pm 7ft 11s 6s 16 20 mph 1008.4mb 50f 51f
5:50pm 7.5ft 11s 7s 16 20 mph 1008.6mb 50f 51f
4:50pm 7ft 11s 6s 20 22 mph 1008.9mb 50f 51f
3:50pm 7ft 11s 6s 18 20 mph 1009.4mb 50f 51f
2:50pm 7.5ft 11s 7s 18 20 mph 1010mb 50f 51f
1:50pm 8ft 11s 7s 18 20 mph 1010.5mb 50f 51f
12:50pm 8.5ft 10s  -  18 22 mph 1010.9mb 50f 51f
11:50am 8ft 11s 7s 18 27 mph 1011.6mb 50f 50f
10:50am 9ft 11s 7s 18 27 mph 1012mb 50f 50f
9:50am 8ft 11s 7s 18 22 mph 1012.2mb 50f 51f
8:50am 8ft 11s 7s 22 27 mph 1012.5mb 50f 51f
7:50am 8.5ft 11s 7s 20 25 mph 1012.7mb 50f 52f
6:50am 9ft 8s 7s 18 22 mph 1012.7mb 50f 51f
5:50am 9ft 11s 7s 18 25 mph 1012.4mb 50f 51f
4:50am 9ft 11s  -  20 27 mph 1012.9mb 50f 51f
3:50am 9.5ft 10s 7s 20 27 mph 1012.3mb 50f 51f
2:50am 10ft 11s 7s 20 27 mph 1012mb 50f 51f
1:50am 9.5ft 11s 7s 20 25 mph 1012.3mb 50f 51f
12:50am 9ft 11s  -  20 27 mph 1012.3mb 50f 51f
Thu 09/21 11:50pm 9ft 10s 7s 20 27 mph 1012mb 50f 51f
10:50pm 8ft 10s 6s 22 29 mph 1012.1mb 50f 52f
9:50pm 8ft 8s 6s 22 27 mph 1011.9mb 50f 52f
8:50pm 9ft 10s 6s 22 29 mph 1011.6mb 50f 53f
7:50pm 8.5ft 8s 7s 18 25 mph 1011.4mb 50f 53f
6:50pm 8.5ft 8s 7s 20 27 mph 1011.4mb 50f 53f
5:50pm 9ft 9s 6s 20 27 mph 1011.5mb 50f 53f
4:50pm 9ft 9s 7s 22 29 mph 1011.7mb 50f 53f
3:50pm 8ft 6s 6s 22 29 mph 1011.9mb 50f 53f
2:50pm 7.5ft 8s 6s 22 29 mph 1012.1mb 50f 53f
1:50pm 7.5ft 6s 6s 22 27 mph 1012.4mb 50f 53f
12:50pm 7ft 6s 5s 25 27 mph 1012.5mb 50f 53f
11:50am 6.5ft 6s 5s 22 29 mph 1013mb 50f 54f
10:50am 6ft 6s 5s 25 29 mph 1013.8mb 50f 54f
9:50am 6ft 6s 5s 22 27 mph 1014.3mb 50f 53f
8:50am 6ft 6s 5s 25 27 mph 1015mb 50f 54f
7:50am 5.5ft 6s 5s 25 27 mph 1015.6mb 50f 54f
6:50am 5ft 6s 5s 22 27 mph 1016.2mb 50f 53f
5:50am 5ft 5s 5s 20 25 mph 1016.8mb 50f 53f
4:50am 5ft 6s 5s 20 29 mph 1017.3mb 50f 53f
3:50am 5ft 6s 5s 20 25 mph 1017.5mb 50f 53f
2:50am 5ft 6s 5s 18 22 mph 1017.7mb 50f 53f
1:50am 4.5ft 10s 6s 20 27 mph 1018.6mb 50f 53f
12:50am 4.5ft 9s 6s 20 25 mph 1018.9mb 50f 53f
Wed 09/20 11:50pm 5ft 6s 5s 18 22 mph 1019.5mb 50f 52f
10:50pm 5ft 6s 5s 18 20 mph 1020mb 50f 52f
9:50pm 5ft 6s 5s 18 25 mph 1020.5mb 50f 52f
8:50pm 5.5ft 5s 5s 18 25 mph 1020.9mb 50f 51f
7:50pm 5ft 6s 5s 20 25 mph 1021.2mb 50f 51f
6:50pm 5ft 5s 5s 20 27 mph 1021.6mb 50f 51f
5:50pm 5ft 5s 5s 22 29 mph 1021.9mb 50f 50f
4:50pm 4ft 5s 5s 20 25 mph 1022.5mb 50f 50f
3:50pm 3.5ft 13s 5s 20 25 mph 1022.9mb 50f 50f
2:50pm 3.5ft 13s 5s  -  mph 1023.9mb 50f 50f
1:50pm 3.5ft 15s 5s  -  mph 1024.3mb 50f 50f
12:50pm 3.5ft 13s 5s  -  mph 1024.2mb 50f 50f
11:50am 3.5ft 13s 5s  -  mph 1024.8mb 50f 50f
10:50am 3.5ft 14s 5s  -  mph 1025.4mb 50f 50f
9:50am 4ft 13s 6s  -  mph 1025.8mb 50f 50f
8:50am 4ft 13s 6s  -  mph 1026.3mb 50f 50f